Time;durP1;ratioP1;P1;durP2;ratioP2;P2;SDS_P1;SDS_P2;PMS_P1;PMS_P2;Temp;Humidity;BMP_temperature;BMP_pressure;BME280_temperature;BME280_humidity;BME280_pressure;Samples;Min_cycle;Max_cycle;Signal;HPM_P1;HPM_P2
2022/12/30 00:01:15;;;;;;;26.88;4.18;;;8.30;99.90;;;;;;5032284;28;20042;-76
2022/12/30 00:03:41;;;;;;;31.02;4.65;;;8.30;99.90;;;;;;5011403;28;20105;-75
2022/12/30 00:06:14;;;;;;;26.67;4.60;;;8.30;99.90;;;;;;5011398;28;20053;-76
2022/12/30 00:08:50;;;;;;;31.50;4.88;;;8.30;99.90;;;;;;5012372;28;20391;-76
2022/12/30 00:11:23;;;;;;;34.10;4.43;;;8.30;99.90;;;;;;5010856;28;20029;-76
2022/12/30 00:34:25;;;;;;;30.48;5.00;;;8.40;99.90;;;;;;5012122;28;20060;-76
2022/12/30 00:36:51;;;;;;;39.40;4.88;;;8.40;99.90;;;;;;5011486;28;20421;-75
2022/12/30 00:39:17;;;;;;;33.65;5.60;;;8.40;99.90;;;;;;5011657;28;20022;-76
2022/12/30 00:44:27;;;;;;;28.08;4.68;;;8.40;99.90;;;;;;5011662;28;20586;-76
2022/12/30 00:46:53;;;;;;;28.83;4.45;;;8.40;99.90;;;;;;5011631;28;20042;-76
2022/12/30 00:57:31;;;;;;;34.60;5.25;;;8.40;99.90;;;;;;5011686;28;20088;-76
2022/12/30 00:59:56;;;;;;;26.65;4.72;;;8.40;99.90;;;;;;5012106;28;20430;-75
2022/12/30 01:02:22;;;;;;;30.05;4.60;;;8.40;99.90;;;;;;5009662;28;20065;-76
2022/12/30 01:04:48;;;;;;;34.25;5.20;;;8.40;99.90;;;;;;5011262;28;20022;-75
2022/12/30 01:07:13;;;;;;;33.63;4.07;;;8.40;99.90;;;;;;5010463;28;20418;-75
2022/12/30 01:09:39;;;;;;;33.17;4.40;;;8.40;99.90;;;;;;5011109;28;20037;-75
2022/12/30 01:12:07;;;;;;;28.25;4.45;;;8.40;99.90;;;;;;5011520;28;20026;-76
2022/12/30 01:14:47;;;;;;;33.97;6.10;;;8.30;99.90;;;;;;5012874;28;20137;-76
2022/12/30 01:17:16;;;;;;;29.67;4.35;;;8.30;99.90;;;;;;5013387;28;20045;-75
2022/12/30 01:19:41;;;;;;;31.23;5.10;;;8.30;99.90;;;;;;5015532;28;20694;-76
2022/12/30 01:22:08;;;;;;;34.10;5.53;;;8.30;99.90;;;;;;5014768;28;20036;-75
2022/12/30 01:24:34;;;;;;;25.30;4.72;;;8.30;99.90;;;;;;5014087;28;20053;-75
2022/12/30 01:27:00;;;;;;;31.83;4.88;;;8.30;99.90;;;;;;5014647;28;20418;-75
2022/12/30 01:29:34;;;;;;;27.35;4.80;;;8.20;99.90;;;;;;5015157;28;20032;-76
2022/12/30 01:32:00;;;;;;;28.17;4.97;;;8.30;99.90;;;;;;5015165;28;20033;-75
2022/12/30 01:34:26;;;;;;;40.35;5.28;;;8.20;99.90;;;;;;5015101;28;20026;-76
2022/12/30 01:36:52;;;;;;;34.03;5.03;;;8.20;99.90;;;;;;5013889;28;20057;-75
2022/12/30 01:39:19;;;;;;;30.27;4.70;;;8.20;99.90;;;;;;5015352;28;20058;-76
2022/12/30 01:41:45;;;;;;;35.45;5.47;;;8.20;99.90;;;;;;5017134;28;20491;-75
2022/12/30 01:44:49;;;;;;;29.70;5.95;;;8.10;99.90;;;;;;5015628;28;20069;-76
2022/12/30 01:47:35;;;;;;;36.33;5.75;;;8.10;99.90;;;;;;5013836;28;20060;-75
2022/12/30 01:50:09;;;;;;;30.23;5.18;;;8.20;99.90;;;;;;4996280;28;20034;-76
2022/12/30 01:52:44;;;;;;;35.20;4.80;;;8.20;99.90;;;;;;5014660;28;20363;-75
2022/12/30 01:55:14;;;;;;;27.33;4.88;;;8.10;99.90;;;;;;5014868;28;20438;-75
2022/12/30 01:57:43;;;;;;;26.58;5.10;;;8.10;99.90;;;;;;5012863;28;20080;-75
2022/12/30 02:00:10;;;;;;;27.10;4.60;;;8.00;99.90;;;;;;5014380;28;20490;-75
2022/12/30 02:02:35;;;;;;;40.60;5.45;;;8.10;99.90;;;;;;5014180;28;20026;-75
2022/12/30 02:05:03;;;;;;;38.40;5.40;;;8.10;99.90;;;;;;5014874;28;20585;-75
2022/12/30 02:07:35;;;;;;;34.20;5.35;;;8.00;99.90;;;;;;5013355;28;20553;-75
2022/12/30 02:10:00;;;;;;;44.63;6.38;;;8.00;99.90;;;;;;5015300;28;20083;-76
2022/12/30 02:12:26;;;;;;;31.27;5.18;;;8.00;99.90;;;;;;5013363;28;20085;-75
2022/12/30 02:14:55;;;;;;;35.65;4.70;;;8.00;99.90;;;;;;5015123;28;20111;-75
2022/12/30 02:17:39;;;;;;;41.97;5.28;;;8.00;99.90;;;;;;5014309;28;20049;-76
2022/12/30 02:20:32;;;;;;;34.63;5.15;;;7.90;99.90;;;;;;5019645;28;20068;-75
2022/12/30 02:23:23;;;;;;;31.65;5.25;;;8.00;99.90;;;;;;5019065;28;20494;-76
2022/12/30 02:26:13;;;;;;;37.50;5.65;;;7.90;99.90;;;;;;5014050;28;20034;-75
2022/12/30 02:28:54;;;;;;;43.80;5.38;;;7.90;99.90;;;;;;5014955;28;20034;-75
2022/12/30 02:31:26;;;;;;;31.08;5.10;;;7.90;99.90;;;;;;5014741;28;20513;-76
2022/12/30 02:34:19;;;;;;;30.90;5.47;;;7.80;99.90;;;;;;5014766;28;20491;-75
2022/12/30 02:36:50;;;;;;;36.08;4.93;;;7.80;99.90;;;;;;5014100;28;20463;-75
2022/12/30 02:39:31;;;;;;;42.83;5.85;;;7.80;99.90;;;;;;5014943;28;20448;-75
2022/12/30 02:44:58;;;;;;;38.83;5.38;;;7.90;99.90;;;;;;5015162;28;20049;-75
2022/12/30 02:47:46;;;;;;;34.03;5.10;;;7.90;99.90;;;;;;5014607;28;20034;-75
2022/12/30 02:53:03;;;;;;;40.67;5.47;;;7.90;99.90;;;;;;5015822;28;20080;-78
2022/12/30 02:55:29;;;;;;;39.00;5.03;;;7.90;99.90;;;;;;5023557;28;20040;-79
2022/12/30 02:57:54;;;;;;;35.63;4.63;;;8.00;99.90;;;;;;5037159;28;20022;-79
2022/12/30 03:06:29;;;;;;;27.20;5.03;;;8.10;99.90;;;;;;5019741;28;20474;-78
2022/12/30 03:09:13;;;;;;;31.95;5.30;;;8.10;99.90;;;;;;5022006;28;20100;-78
2022/12/30 03:12:04;;;;;;;40.47;5.40;;;8.10;99.90;;;;;;5025636;28;20006;-79
2022/12/30 03:14:42;;;;;;;30.77;5.15;;;8.10;99.90;;;;;;5038771;28;20044;-79
2022/12/30 03:17:12;;;;;;;41.65;5.97;;;8.10;99.90;;;;;;5037580;28;20048;-76
2022/12/30 03:19:44;;;;;;;42.55;6.55;;;8.10;99.90;;;;;;5020438;28;20022;-79
2022/12/30 03:27:03;;;;;;;41.45;5.68;;;8.20;99.90;;;;;;5031133;28;20017;-77
2022/12/30 03:27:46;;;;;;;36.13;5.22;;;8.20;99.90;;;;;;5037537;28;20029;-76
2022/12/30 03:30:12;;;;;;;36.83;5.55;;;8.30;99.90;;;;;;5034020;28;20050;-78
2022/12/30 03:32:38;;;;;;;37.88;6.00;;;8.30;99.90;;;;;;5021118;28;20387;-77
2022/12/30 03:35:05;;;;;;;46.28;5.40;;;8.30;99.90;;;;;;5021333;28;20033;-79
2022/12/30 03:37:35;;;;;;;41.95;5.45;;;8.30;99.90;;;;;;5020375;28;20160;-79
2022/12/30 03:40:09;;;;;;;38.40;5.22;;;8.40;99.90;;;;;;5022107;28;20289;-78
2022/12/30 03:42:34;;;;;;;42.67;5.18;;;8.30;99.90;;;;;;5021106;28;20475;-77
2022/12/30 03:45:02;;;;;;;26.42;4.85;;;8.30;99.90;;;;;;5024057;28;20032;-77
2022/12/30 03:47:27;;;;;;;42.22;5.50;;;8.40;99.90;;;;;;5020826;28;20052;-78
2022/12/30 03:49:53;;;;;;;39.90;5.13;;;8.40;99.90;;;;;;5021531;28;20046;-77
2022/12/30 03:52:20;;;;;;;41.60;5.30;;;8.40;99.90;;;;;;5022665;28;20391;-76
2022/12/30 03:54:50;;;;;;;30.70;4.80;;;8.40;99.90;;;;;;5030798;28;20041;-77
2022/12/30 03:57:17;;;;;;;38.80;5.85;;;8.40;99.70;;;;;;5028840;28;20122;-77
2022/12/30 03:59:43;;;;;;;44.03;5.50;;;8.50;99.50;;;;;;5032268;28;20101;-77
2022/12/30 04:02:09;;;;;;;48.40;6.22;;;8.50;98.90;;;;;;5028842;28;20033;-79
2022/12/30 04:04:35;;;;;;;43.38;5.03;;;8.50;98.50;;;;;;5025757;28;20029;-76
2022/12/30 04:07:01;;;;;;;33.72;5.43;;;8.50;97.70;;;;;;5028160;28;20026;-78
2022/12/30 04:09:27;;;;;;;37.58;5.28;;;8.60;98.00;;;;;;5034231;28;20045;-77
2022/12/30 04:11:53;;;;;;;31.20;4.80;;;8.60;98.00;;;;;;5035900;28;20037;-76
2022/12/30 04:14:18;;;;;;;45.85;6.28;;;8.60;97.40;;;;;;5037827;28;20065;-77
2022/12/30 04:16:44;;;;;;;44.72;4.95;;;8.60;96.80;;;;;;5037279;28;20042;-75
2022/12/30 04:19:10;;;;;;;36.42;5.00;;;8.60;96.20;;;;;;5037188;28;20021;-75
2022/12/30 04:21:36;;;;;;;29.88;5.38;;;8.60;97.20;;;;;;5037630;28;20022;-75
2022/12/30 04:24:01;;;;;;;46.35;5.60;;;8.60;97.00;;;;;;5021102;28;20376;-77
2022/12/30 04:26:27;;;;;;;38.38;5.68;;;8.60;96.90;;;;;;5014768;28;20022;-77
2022/12/30 04:28:53;;;;;;;41.42;5.18;;;8.70;96.80;;;;;;5015983;28;20431;-77
2022/12/30 04:31:18;;;;;;;45.72;5.75;;;8.70;96.60;;;;;;5018160;28;20085;-76
2022/12/30 04:33:44;;;;;;;37.58;5.38;;;8.70;96.50;;;;;;5015468;28;20491;-76
2022/12/30 04:36:09;;;;;;;35.50;4.85;;;8.70;96.40;;;;;;5023186;28;20061;-76
2022/12/30 04:38:35;;;;;;;32.45;4.75;;;8.60;97.00;;;;;;5028249;28;20394;-76
2022/12/30 04:41:00;;;;;;;45.55;5.38;;;8.70;96.60;;;;;;5021061;28;20383;-76
2022/12/30 04:43:26;;;;;;;34.22;4.75;;;8.70;96.40;;;;;;5024325;28;20026;-76
2022/12/30 04:45:52;;;;;;;33.25;5.28;;;8.60;96.70;;;;;;5021044;28;20145;-77
2022/12/30 04:48:18;;;;;;;41.33;5.25;;;8.70;95.70;;;;;;5016750;28;20022;-77
2022/12/30 04:50:45;;;;;;;44.60;5.40;;;8.70;96.20;;;;;;5019441;28;20022;-77
2022/12/30 04:53:11;;;;;;;30.75;4.70;;;8.80;94.40;;;;;;5019617;28;20022;-76
2022/12/30 04:55:37;;;;;;;34.55;4.82;;;8.80;94.50;;;;;;5013953;28;20030;-76
2022/12/30 04:58:03;;;;;;;35.72;5.28;;;8.70;94.70;;;;;;5013125;28;20132;-75
2022/12/30 05:00:29;;;;;;;44.67;5.47;;;8.70;94.30;;;;;;5013235;28;20049;-75
2022/12/30 05:02:55;;;;;;;35.20;4.70;;;8.70;95.50;;;;;;5012513;28;20050;-77
2022/12/30 05:05:20;;;;;;;39.78;5.50;;;8.70;94.70;;;;;;5012316;28;20029;-76
2022/12/30 05:07:46;;;;;;;30.60;5.10;;;8.70;94.10;;;;;;5013001;28;20441;-76
2022/12/30 05:10:11;;;;;;;37.13;5.18;;;8.70;94.70;;;;;;5013232;28;20491;-74
2022/12/30 05:12:37;;;;;;;35.28;5.05;;;8.60;95.30;;;;;;5012653;28;20040;-74
2022/12/30 05:15:03;;;;;;;35.63;4.95;;;8.60;96.10;;;;;;5012438;28;20037;-75
2022/12/30 05:17:29;;;;;;;39.13;5.53;;;8.60;96.00;;;;;;5011875;28;20038;-74
2022/12/30 05:19:54;;;;;;;27.73;4.32;;;8.60;96.20;;;;;;5011211;28;20143;-75
2022/12/30 05:22:20;;;;;;;35.53;6.00;;;8.60;96.40;;;;;;5012353;28;20021;-75
2022/12/30 05:27:29;;;;;;;42.38;6.50;;;8.60;95.90;;;;;;5012285;28;20037;-74
2022/12/30 05:29:55;;;;;;;38.67;6.18;;;8.50;96.80;;;;;;5012449;28;20030;-75
2022/12/30 05:32:20;;;;;;;43.53;6.00;;;8.40;97.20;;;;;;5013672;28;20026;-75
2022/12/30 05:34:46;;;;;;;32.60;5.07;;;8.30;97.40;;;;;;5011272;28;20034;-76
2022/12/30 05:37:11;;;;;;;38.25;6.13;;;8.20;98.70;;;;;;5009924;28;20123;-74
2022/12/30 05:39:37;;;;;;;36.85;5.28;;;8.20;99.20;;;;;;5011644;28;20018;-75
2022/12/30 05:42:02;;;;;;;36.40;5.68;;;8.20;99.20;;;;;;5010262;28;20029;-75
2022/12/30 05:44:28;;;;;;;40.35;6.05;;;8.10;99.20;;;;;;5011546;28;20022;-75
2022/12/30 05:46:54;;;;;;;41.50;6.22;;;8.10;99.20;;;;;;5012623;28;20502;-74
2022/12/30 05:49:19;;;;;;;40.50;6.28;;;8.00;99.90;;;;;;5011977;28;20045;-75
2022/12/30 05:51:45;;;;;;;33.92;5.82;;;8.10;99.50;;;;;;5014255;28;20054;-74
2022/12/30 05:54:10;;;;;;;32.58;5.32;;;8.00;99.80;;;;;;5013227;28;20109;-74
2022/12/30 05:56:36;;;;;;;39.28;6.13;;;8.10;99.70;;;;;;5013005;28;20112;-73
2022/12/30 05:59:01;;;;;;;39.55;6.10;;;8.00;99.90;;;;;;5014281;28;20137;-74
2022/12/30 06:01:27;;;;;;;39.88;6.35;;;8.10;99.90;;;;;;5014057;28;20022;-74
2022/12/30 06:03:56;;;;;;;34.05;6.20;;;8.10;99.50;;;;;;5018551;28;20360;-74
2022/12/30 06:06:22;;;;;;;36.28;5.55;;;8.10;99.90;;;;;;5018109;28;20045;-75
2022/12/30 06:08:48;;;;;;;42.70;6.20;;;8.10;99.90;;;;;;5020483;28;20022;-74
2022/12/30 06:11:14;;;;;;;37.78;5.72;;;8.10;99.90;;;;;;5018940;28;20032;-74
2022/12/30 06:13:39;;;;;;;40.92;6.45;;;8.10;99.90;;;;;;5017170;28;20513;-76
2022/12/30 06:16:05;;;;;;;36.67;6.32;;;8.10;99.90;;;;;;5013598;28;20025;-76
2022/12/30 06:18:31;;;;;;;33.85;5.43;;;8.20;99.40;;;;;;5006654;28;20510;-75
2022/12/30 06:20:57;;;;;;;37.53;6.25;;;8.10;99.90;;;;;;5008954;28;20092;-76
2022/12/30 06:23:23;;;;;;;39.30;6.57;;;8.10;99.90;;;;;;5004819;28;20050;-74
2022/12/30 06:25:54;;;;;;;44.00;6.97;;;8.10;99.90;;;;;;5006880;28;20023;-75
2022/12/30 06:28:20;;;;;;;36.60;6.22;;;8.10;99.90;;;;;;5010501;28;20041;-74
2022/12/30 06:30:46;;;;;;;42.40;7.10;;;8.10;99.90;;;;;;5008280;28;20414;-74
2022/12/30 06:33:12;;;;;;;39.95;6.82;;;8.00;99.90;;;;;;5017946;28;20061;-75
2022/12/30 06:35:37;;;;;;;38.08;6.13;;;8.00;99.90;;;;;;5019303;28;20025;-73
2022/12/30 06:38:03;;;;;;;36.30;7.10;;;8.00;99.90;;;;;;5014185;28;20022;-74
2022/12/30 06:40:28;;;;;;;42.17;7.40;;;7.90;99.90;;;;;;5010598;28;20475;-74
2022/12/30 06:42:54;;;;;;;30.17;6.13;;;7.90;99.90;;;;;;5013451;28;20097;-74
2022/12/30 06:45:19;;;;;;;44.65;8.00;;;7.80;99.90;;;;;;5017585;28;20034;-74
2022/12/30 06:47:45;;;;;;;37.88;6.80;;;7.70;99.90;;;;;;5014610;28;20054;-75
2022/12/30 06:50:10;;;;;;;40.42;6.70;;;7.60;99.90;;;;;;5011374;28;20033;-75
2022/12/30 06:52:36;;;;;;;42.47;7.18;;;7.50;99.90;;;;;;5010518;28;20017;-73
2022/12/30 06:55:01;;;;;;;27.73;6.43;;;7.50;99.90;;;;;;5007126;28;20033;-74
2022/12/30 06:57:27;;;;;;;50.30;7.47;;;7.50;99.90;;;;;;5005073;28;20022;-73
2022/12/30 06:59:53;;;;;;;31.65;7.00;;;7.40;99.90;;;;;;5009070;28;20349;-73
2022/12/30 07:02:18;;;;;;;32.53;6.90;;;7.40;99.90;;;;;;5012661;28;20028;-74
2022/12/30 07:04:44;;;;;;;31.77;6.85;;;7.30;99.90;;;;;;5021404;28;20063;-74
2022/12/30 07:07:09;;;;;;;28.75;6.30;;;7.30;99.90;;;;;;5016468;28;20029;-76
2022/12/30 07:09:35;;;;;;;36.53;6.70;;;7.30;99.90;;;;;;5008761;28;20186;-75
2022/12/30 07:12:00;;;;;;;40.72;7.15;;;7.30;99.90;;;;;;5013587;28;20037;-74
2022/12/30 07:14:26;;;;;;;45.55;7.40;;;7.20;99.90;;;;;;5015014;28;20081;-75
2022/12/30 07:16:51;;;;;;;36.00;6.50;;;7.20;99.90;;;;;;5021499;28;20109;-74
2022/12/30 07:19:17;;;;;;;41.28;7.78;;;7.20;99.90;;;;;;5028370;28;20014;-74
2022/12/30 07:21:42;;;;;;;38.72;6.95;;;7.10;99.90;;;;;;5033213;28;20140;-74
2022/12/30 07:24:08;;;;;;;37.20;6.78;;;7.00;99.90;;;;;;5013325;28;20030;-73
2022/12/30 07:26:33;;;;;;;38.60;7.55;;;7.10;99.90;;;;;;5012623;28;20030;-76
2022/12/30 07:28:59;;;;;;;40.05;7.07;;;7.00;99.90;;;;;;5016513;28;20072;-74
2022/12/30 07:31:25;;;;;;;32.83;6.70;;;7.10;99.90;;;;;;5015354;28;20018;-74
2022/12/30 07:33:50;;;;;;;39.90;7.28;;;7.00;99.90;;;;;;5011851;28;20080;-73
2022/12/30 07:36:16;;;;;;;46.38;8.07;;;6.90;99.90;;;;;;5012876;28;20428;-74
2022/12/30 07:38:41;;;;;;;37.80;6.43;;;6.90;99.90;;;;;;5011620;28;20030;-74
2022/12/30 07:41:07;;;;;;;43.53;7.50;;;6.80;99.90;;;;;;5014737;28;20022;-75
2022/12/30 07:43:32;;;;;;;38.75;6.68;;;6.80;99.90;;;;;;5015353;28;20105;-73
2022/12/30 07:45:58;;;;;;;45.72;8.00;;;6.80;99.90;;;;;;5017416;28;20053;-73
2022/12/30 07:48:24;;;;;;;49.75;9.38;;;6.80;99.90;;;;;;5017303;28;20037;-75
2022/12/30 07:50:49;;;;;;;43.35;7.47;;;6.70;99.90;;;;;;5018073;28;20087;-75
2022/12/30 07:53:15;;;;;;;36.30;8.35;;;6.70;99.90;;;;;;5012870;28;20046;-76
2022/12/30 07:55:40;;;;;;;41.35;7.60;;;6.60;99.90;;;;;;5012713;28;20030;-76
2022/12/30 07:58:07;;;;;;;57.55;8.80;;;6.60;99.90;;;;;;5012180;28;20018;-73
2022/12/30 08:00:33;;;;;;;42.45;7.88;;;6.60;99.90;;;;;;5012571;28;20050;-76
2022/12/30 08:02:58;;;;;;;46.15;8.55;;;6.60;99.90;;;;;;5013327;28;20024;-75
2022/12/30 08:05:24;;;;;;;41.80;7.95;;;6.50;99.90;;;;;;5011860;28;20101;-75
2022/12/30 08:07:52;;;;;;;42.55;7.88;;;6.60;99.90;;;;;;5013352;28;20032;-75
2022/12/30 08:10:19;;;;;;;49.63;8.15;;;6.70;99.90;;;;;;5015548;28;20030;-75
2022/12/30 08:12:45;;;;;;;45.78;8.50;;;6.70;99.90;;;;;;5014307;28;20022;-74
2022/12/30 08:15:11;;;;;;;43.40;8.30;;;6.60;99.90;;;;;;5013802;28;20037;-73
2022/12/30 08:17:36;;;;;;;37.28;8.07;;;6.70;99.90;;;;;;5012869;28;20069;-75
2022/12/30 08:20:03;;;;;;;34.17;7.25;;;6.70;99.90;;;;;;5013516;28;20069;-74
2022/12/30 08:22:29;;;;;;;40.22;7.47;;;6.70;99.90;;;;;;5013600;28;20045;-76
2022/12/30 08:24:54;;;;;;;46.55;7.28;;;6.80;99.90;;;;;;5011776;28;20022;-77
2022/12/30 08:27:20;;;;;;;43.72;7.32;;;6.80;99.90;;;;;;5012583;28;20414;-75
2022/12/30 08:29:45;;;;;;;38.20;7.00;;;6.90;99.90;;;;;;5015733;28;20038;-74
2022/12/30 08:32:11;;;;;;;41.28;6.75;;;6.90;99.90;;;;;;5016873;28;20116;-74
2022/12/30 08:34:36;;;;;;;38.00;6.93;;;6.90;99.90;;;;;;5017782;28;20487;-75
2022/12/30 08:37:02;;;;;;;38.50;6.78;;;6.90;99.90;;;;;;5020831;28;20033;-74
2022/12/30 08:39:28;;;;;;;35.40;6.35;;;6.90;99.90;;;;;;5019521;28;20053;-75
2022/12/30 08:41:53;;;;;;;32.05;6.03;;;6.90;99.90;;;;;;5020174;28;20028;-76
2022/12/30 08:44:19;;;;;;;39.80;6.25;;;7.00;99.90;;;;;;5015351;28;20049;-75
2022/12/30 08:46:45;;;;;;;43.78;6.95;;;6.90;99.90;;;;;;5012539;28;20026;-75
2022/12/30 08:49:11;;;;;;;43.92;7.60;;;7.00;99.90;;;;;;5015884;28;20144;-77
2022/12/30 08:51:37;;;;;;;45.60;7.18;;;7.00;99.90;;;;;;5014169;28;20022;-75
2022/12/30 08:54:04;;;;;;;43.63;7.45;;;7.10;99.90;;;;;;5012602;28;20045;-75
2022/12/30 08:56:32;;;;;;;39.10;6.43;;;7.10;99.90;;;;;;5013153;28;20483;-74
2022/12/30 08:58:58;;;;;;;43.35;5.97;;;7.20;99.90;;;;;;5012807;28;20033;-73
2022/12/30 09:01:36;;;;;;;40.42;6.80;;;7.20;99.90;;;;;;5012525;28;20018;-70
2022/12/30 09:04:03;;;;;;;36.90;6.22;;;7.20;99.90;;;;;;5012680;28;20126;-73
2022/12/30 09:06:30;;;;;;;35.10;6.35;;;7.30;99.90;;;;;;5012203;28;20379;-75
2022/12/30 09:08:57;;;;;;;34.75;6.00;;;7.40;99.90;;;;;;5018612;28;20030;-74
2022/12/30 09:11:29;;;;;;;44.00;6.85;;;7.40;99.90;;;;;;5016469;28;20356;-74
2022/12/30 09:13:56;;;;;;;39.00;7.35;;;7.50;99.90;;;;;;5014511;28;20026;-75
2022/12/30 09:16:23;;;;;;;31.90;5.65;;;7.60;99.90;;;;;;5014542;28;20068;-71
2022/12/30 09:18:49;;;;;;;38.40;6.47;;;7.60;99.90;;;;;;5065995;23;20058;-79
2022/12/30 09:21:15;;;;;;;36.15;5.82;;;7.70;99.90;;;;;;5068821;28;20053;-76
2022/12/30 09:23:41;;;;;;;41.33;6.65;;;7.90;99.90;;;;;;5072518;28;20017;-77
2022/12/30 09:26:08;;;;;;;41.53;6.43;;;8.00;99.90;;;;;;5071458;28;20033;-78
2022/12/30 09:28:35;;;;;;;40.53;7.35;;;8.20;99.90;;;;;;5062736;28;20527;-77
2022/12/30 09:31:00;;;;;;;34.50;6.13;;;8.60;97.20;;;;;;5068395;28;20025;-75
2022/12/30 09:33:26;;;;;;;31.40;5.93;;;8.60;95.20;;;;;;5066179;28;20029;-78
2022/12/30 09:35:51;;;;;;;42.10;6.53;;;8.50;94.30;;;;;;5067484;28;20041;-78
2022/12/30 09:38:17;;;;;;;33.03;6.07;;;8.40;96.70;;;;;;5071526;28;20036;-78
2022/12/30 09:41:05;;;;;;;33.92;5.70;;;8.40;97.20;;;;;;5067231;28;20035;-81
2022/12/30 09:43:49;;;;;;;27.35;5.30;;;8.30;97.50;;;;;;5062461;28;20030;-80
2022/12/30 09:46:23;;;;;;;51.13;5.70;;;8.40;97.70;;;;;;5069736;28;20005;-78
2022/12/30 09:48:59;;;;;;;35.08;6.45;;;8.40;97.40;;;;;;5063747;28;20056;-79
2022/12/30 09:51:34;;;;;;;43.78;6.05;;;8.30;97.50;;;;;;5062496;28;20044;-80
2022/12/30 09:54:22;;;;;;;35.90;5.30;;;8.50;97.70;;;;;;5062916;28;20036;-84
2022/12/30 09:56:50;;;;;;;30.05;6.10;;;8.50;96.40;;;;;;5063486;28;20092;-77
2022/12/30 09:59:25;;;;;;;46.40;8.30;;;8.50;97.00;;;;;;5062698;28;20021;-77
2022/12/30 10:01:59;;;;;;;38.60;5.95;;;8.50;95.50;;;;;;5061823;28;20021;-76
2022/12/30 10:04:34;;;;;;;41.20;5.97;;;8.60;96.30;;;;;;5067119;28;20017;-76
2022/12/30 10:07:13;;;;;;;30.52;5.07;;;8.50;95.80;;;;;;5050330;28;20053;-76
2022/12/30 10:09:49;;;;;;;34.67;5.07;;;8.60;94.90;;;;;;5056547;28;20017;-78
2022/12/30 10:12:39;;;;;;;44.08;6.18;;;8.60;95.40;;;;;;5060822;28;20100;-79
2022/12/30 10:15:06;;;;;;;38.50;5.45;;;8.70;94.30;;;;;;5060131;28;20548;-78
2022/12/30 10:18:06;;;;;;;28.55;5.28;;;8.70;94.10;;;;;;5060553;28;20025;-79
2022/12/30 10:20:55;;;;;;;35.10;5.38;;;8.60;95.30;;;;;;5061503;28;20413;-79
2022/12/30 10:23:39;;;;;;;38.17;5.53;;;8.60;96.50;;;;;;5062534;28;20028;-77
2022/12/30 10:26:14;;;;;;;43.83;8.85;;;8.50;96.40;;;;;;5060222;28;20076;-76
2022/12/30 10:28:51;;;;;;;33.55;6.30;;;8.60;96.00;;;;;;5060087;28;20116;-77
2022/12/30 10:31:21;;;;;;;39.90;5.68;;;8.60;94.60;;;;;;5059995;28;20041;-77
2022/12/30 10:33:49;;;;;;;34.05;5.65;;;8.60;94.90;;;;;;5060441;28;20021;-76
2022/12/30 10:36:24;;;;;;;32.90;4.50;;;8.70;94.40;;;;;;5064891;28;20055;-77
2022/12/30 10:38:58;;;;;;;28.65;4.88;;;8.70;94.50;;;;;;5070391;28;20036;-76
2022/12/30 10:41:45;;;;;;;28.00;5.32;;;8.80;92.80;;;;;;5067800;28;20035;-76
2022/12/30 10:44:24;;;;;;;25.98;4.60;;;8.80;92.10;;;;;;5074082;28;20029;-78
2022/12/30 10:47:28;;;;;;;30.55;4.30;;;8.90;91.50;;;;;;5064702;28;20072;-80
2022/12/30 10:50:11;;;;;;;31.80;4.32;;;8.90;91.00;;;;;;5055759;28;20335;-78
2022/12/30 10:52:36;;;;;;;30.55;4.63;;;9.00;91.30;;;;;;5048425;28;20470;-79
2022/12/30 10:55:36;;;;;;;27.63;4.47;;;9.00;90.40;;;;;;5043870;28;20029;-78
2022/12/30 10:58:05;;;;;;;30.85;4.90;;;9.00;90.10;;;;;;5054297;28;20029;-75
2022/12/30 11:00:39;;;;;;;26.85;4.70;;;9.10;89.20;;;;;;5061362;28;20018;-75
2022/12/30 11:03:25;;;;;;;30.92;4.13;;;9.10;86.80;;;;;;5055954;28;20036;-77
2022/12/30 11:05:51;;;;;;;27.90;4.70;;;9.20;84.10;;;;;;5052719;28;20032;-77
2022/12/30 11:08:24;;;;;;;26.58;3.90;;;9.10;84.70;;;;;;5054446;28;20025;-77
2022/12/30 11:11:03;;;;;;;34.53;4.38;;;9.20;84.90;;;;;;5053055;28;20099;-72
2022/12/30 11:16:15;;;;;;;20.92;4.18;;;9.20;80.70;;;;;;5058549;28;20028;-74
2022/12/30 11:18:44;;;;;;;28.73;4.30;;;9.10;83.60;;;;;;5058413;28;20045;-75
2022/12/30 11:21:10;;;;;;;26.98;3.90;;;9.30;79.40;;;;;;5058742;28;20065;-75
2022/12/30 11:23:38;;;;;;;24.90;3.80;;;9.30;74.10;;;;;;5058590;28;20044;-73
2022/12/30 11:26:08;;;;;;;21.17;3.63;;;9.40;74.30;;;;;;5057926;28;20277;-77
2022/12/30 11:28:37;;;;;;;26.73;3.88;;;9.30;66.80;;;;;;5046723;28;20024;-77
2022/12/30 11:31:08;;;;;;;30.80;4.07;;;9.40;67.60;;;;;;5042067;28;20094;-80
2022/12/30 11:33:37;;;;;;;22.08;4.50;;;9.30;71.00;;;;;;5047122;28;20026;-77
2022/12/30 11:36:17;;;;;;;18.33;3.50;;;9.30;68.00;;;;;;5048079;28;20021;-79
2022/12/30 11:38:46;;;;;;;18.67;3.30;;;9.20;67.40;;;;;;5040843;28;20053;-80
2022/12/30 11:41:17;;;;;;;28.92;3.67;;;9.30;70.70;;;;;;5041496;28;20022;-78
2022/12/30 11:43:44;;;;;;;22.30;3.58;;;9.30;66.30;;;;;;5044231;28;20021;-75
2022/12/30 11:46:25;;;;;;;22.83;3.53;;;9.20;67.80;;;;;;5046005;28;20394;-78
2022/12/30 11:48:53;;;;;;;23.42;3.78;;;9.30;71.80;;;;;;5037106;28;20057;-79
2022/12/30 11:51:23;;;;;;;20.33;3.38;;;9.20;64.00;;;;;;5039872;28;20033;-78
2022/12/30 11:54:05;;;;;;;22.10;3.10;;;9.30;63.90;;;;;;5040333;28;20565;-78
2022/12/30 11:56:30;;;;;;;27.23;5.20;;;9.20;61.20;;;;;;5047061;28;20025;-78
2022/12/30 11:59:05;;;;;;;21.83;3.63;;;9.20;66.60;;;;;;5052031;28;20053;-77
2022/12/30 12:01:45;;;;;;;16.45;3.25;;;9.10;68.00;;;;;;5040453;28;20076;-78
2022/12/30 12:04:36;;;;;;;29.48;4.75;;;9.10;66.10;;;;;;5039694;28;20029;-80
2022/12/30 12:07:04;;;;;;;20.27;3.38;;;9.20;67.90;;;;;;5038802;28;20025;-79
2022/12/30 12:09:40;;;;;;;22.75;3.63;;;9.20;64.70;;;;;;5040104;28;20394;-79
2022/12/30 12:12:15;;;;;;;56.17;10.27;;;9.20;71.30;;;;;;5039630;28;20029;-78
2022/12/30 12:14:58;;;;;;;23.40;3.33;;;9.20;70.20;;;;;;5043261;28;20048;-77
2022/12/30 12:17:36;;;;;;;27.55;3.95;;;9.20;72.00;;;;;;5042772;28;20029;-77
2022/12/30 12:20:16;;;;;;;16.17;3.47;;;9.30;65.30;;;;;;5040544;28;20359;-80
2022/12/30 12:23:00;;;;;;;26.67;3.45;;;9.30;65.80;;;;;;5040314;28;20025;-80
2022/12/30 12:25:33;;;;;;;17.75;2.95;;;9.40;62.80;;;;;;5043853;28;20498;-77
2022/12/30 12:27:58;;;;;;;15.30;3.30;;;9.40;60.40;;;;;;5039484;28;20056;-80
2022/12/30 12:30:47;;;;;;;24.20;4.00;;;9.40;59.00;;;;;;5041698;28;20025;-78
2022/12/30 12:33:34;;;;;;;24.23;3.53;;;9.40;57.80;;;;;;5045956;28;20365;-77
2022/12/30 12:36:38;;;;;;;23.20;3.30;;;9.40;61.00;;;;;;5039519;28;20032;-78
2022/12/30 12:39:11;;;;;;;21.55;3.70;;;9.50;57.40;;;;;;5041397;28;20025;-77
2022/12/30 12:41:52;;;;;;;19.85;3.40;;;9.60;53.80;;;;;;5044748;28;20398;-78
2022/12/30 12:44:26;;;;;;;15.25;3.20;;;9.70;50.80;;;;;;5038095;28;20064;-80
2022/12/30 12:47:18;;;;;;;17.75;3.55;;;9.90;47.00;;;;;;5044553;28;20045;-79
2022/12/30 12:50:21;;;;;;;21.38;6.10;;;10.20;30.60;;;;;;5045691;28;20561;-80
2022/12/30 12:53:09;;;;;;;22.60;5.13;;;10.40;27.20;;;;;;5048731;28;20095;-79
2022/12/30 12:55:43;;;;;;;21.08;4.05;;;10.70;18.90;;;;;;5044119;28;20108;-79
2022/12/30 12:58:14;;;;;;;;;;;10.90;1.00;;;;;;5044504;28;20116;-77
2022/12/30 13:00:55;;;;;;;27.67;3.08;;;11.20;1.00;;;;;;5048102;28;19928;-79
2022/12/30 13:03:40;;;;;;;17.42;3.38;;;11.30;1.00;;;;;;5047636;28;20057;-80
2022/12/30 13:06:35;;;;;;;19.95;3.60;;;11.30;1.00;;;;;;5046088;28;20044;-77
2022/12/30 13:09:19;;;;;;;14.27;2.55;;;11.20;1.00;;;;;;5046262;28;20037;-79
2022/12/30 13:11:47;;;;;;;19.15;3.78;;;11.10;1.00;;;;;;5048993;28;20032;-77
2022/12/30 13:14:39;;;;;;;12.82;3.10;;;11.00;1.00;;;;;;5049939;28;20040;-77
2022/12/30 13:17:17;;;;;;;16.60;2.60;;;10.80;1.00;;;;;;5057411;28;20029;-78
2022/12/30 13:19:54;;;;;;;13.25;2.78;;;10.70;1.00;;;;;;5055226;28;20136;-78
2022/12/30 13:22:25;;;;;;;12.65;2.33;;;10.50;4.50;;;;;;5045488;28;20040;-78
2022/12/30 13:24:53;;;;;;;20.35;3.20;;;10.50;6.90;;;;;;5044084;28;20029;-79
2022/12/30 13:27:30;;;;;;;15.85;2.85;;;10.30;12.30;;;;;;5046219;28;20557;-80
2022/12/30 13:29:58;;;;;;;14.75;2.65;;;10.30;15.70;;;;;;5047314;28;20037;-78
2022/12/30 13:32:49;;;;;;;12.20;2.45;;;10.30;17.30;;;;;;5046637;28;20026;-79
2022/12/30 13:35:47;;;;;;;17.25;3.38;;;10.20;21.80;;;;;;5048472;28;20026;-81
2022/12/30 13:38:29;;;;;;;18.45;3.55;;;10.10;26.70;;;;;;5041721;28;20037;-81
2022/12/30 13:41:13;;;;;;;17.75;3.40;;;10.00;30.40;;;;;;5046551;28;20032;-81
2022/12/30 13:43:46;;;;;;;25.90;6.30;;;9.90;33.00;;;;;;5058185;28;20029;-78
2022/12/30 13:46:22;;;;;;;18.63;3.30;;;9.80;38.40;;;;;;5057155;28;20020;-79
2022/12/30 13:48:52;;;;;;;15.90;3.30;;;;;;;;;;5056422;28;20055;-80
2022/12/30 13:51:19;;;;;;;16.23;3.97;;;;;;;;;;5052250;28;20045;-80
2022/12/30 13:53:56;;;;;;;16.08;3.38;;;;;;;;;;5061529;28;20032;-80
2022/12/30 13:56:33;;;;;;;19.80;3.17;;;;;;;;;;5058490;28;20045;-78
2022/12/30 13:58:59;;;;;;;19.45;3.38;;;;;;;;;;5057318;28;20049;-81